Time;durP1;ratioP1;P1;durP2;ratioP2;P2;SDS_P1;SDS_P2;PMS_P1;PMS_P2;Temp;Humidity;BMP_temperature;BMP_pressure;BME280_temperature;BME280_humidity;BME280_pressure;Samples;Min_cycle;Max_cycle;Signal;HPM_P1;HPM_P2
2023/04/01 00:01:17;;;;;;;0.20;0.13;;;17.80;76.60;;;;;;5065968;28;45147;-80
2023/04/01 00:03:48;;;;;;;0.30;0.10;;;17.80;76.40;;;;;;5065396;28;45172;-80
2023/04/01 00:06:19;;;;;;;1.17;0.17;;;17.80;76.40;;;;;;5066057;28;45283;-80
2023/04/01 00:08:47;;;;;;;0.35;0.10;;;17.80;76.60;;;;;;5068630;28;46559;-80
2023/04/01 00:11:17;;;;;;;0.35;0.20;;;17.80;76.50;;;;;;5066035;28;45072;-79
2023/04/01 00:13:50;;;;;;;0.65;0.20;;;17.80;76.60;;;;;;5065487;28;45309;-80
2023/04/01 00:16:19;;;;;;;1.20;0.30;;;17.80;76.70;;;;;;5065853;28;45166;-80
2023/04/01 00:18:47;;;;;;;0.50;0.10;;;17.70;76.90;;;;;;5065678;28;46954;-80
2023/04/01 00:21:15;;;;;;;0.55;0.28;;;17.70;77.20;;;;;;5067000;28;45171;-80
2023/04/01 00:23:45;;;;;;;0.73;0.15;;;17.80;77.30;;;;;;5068826;28;45150;-80
2023/04/01 00:26:18;;;;;;;0.05;0.00;;;17.70;77.10;;;;;;5069180;28;45652;-80
2023/04/01 00:28:52;;;;;;;1.02;0.20;;;17.70;77.30;;;;;;5068886;28;45471;-80
2023/04/01 00:31:20;;;;;;;0.40;0.10;;;17.70;77.30;;;;;;5068768;28;45453;-80
2023/04/01 00:33:49;;;;;;;1.25;0.22;;;17.70;77.20;;;;;;5069384;28;45168;-81
2023/04/01 00:36:22;;;;;;;0.17;0.17;;;17.70;77.30;;;;;;5068899;28;45290;-80
2023/04/01 00:38:51;;;;;;;0.45;0.13;;;17.70;77.10;;;;;;5068788;28;47023;-80
2023/04/01 00:41:21;;;;;;;0.20;0.20;;;17.80;77.20;;;;;;5068587;28;45250;-80
2023/04/01 00:43:55;;;;;;;0.32;0.20;;;17.70;77.10;;;;;;5069187;28;45191;-81
2023/04/01 00:46:22;;;;;;;0.20;0.10;;;17.70;77.10;;;;;;5069559;28;45428;-81
2023/04/01 00:48:52;;;;;;;1.98;0.10;;;17.70;77.00;;;;;;5068350;28;46549;-81
2023/04/01 00:51:23;;;;;;;0.20;0.10;;;17.70;77.00;;;;;;5068841;28;45212;-81
2023/04/01 00:53:54;;;;;;;0.13;0.10;;;17.70;76.90;;;;;;5068622;28;45092;-81
2023/04/01 00:56:28;;;;;;;0.28;0.10;;;17.70;76.80;;;;;;5068942;28;45427;-81
2023/04/01 00:59:04;;;;;;;1.27;0.20;;;17.80;77.10;;;;;;5068582;28;46687;-80
2023/04/01 01:01:34;;;;;;;0.82;0.20;;;17.70;77.00;;;;;;5071225;28;45137;-81
2023/04/01 01:04:05;;;;;;;0.05;0.00;;;17.70;77.00;;;;;;5068342;28;45293;-81
2023/04/01 01:06:45;;;;;;;0.28;0.20;;;17.70;77.00;;;;;;5068616;28;45425;-81
2023/04/01 01:09:28;;;;;;;0.20;0.10;;;17.70;77.10;;;;;;5068011;28;46979;-81
2023/04/01 01:12:04;;;;;;;0.22;0.20;;;17.70;77.00;;;;;;5068143;28;45083;-81
2023/04/01 01:14:51;;;;;;;0.25;0.20;;;17.70;77.10;;;;;;5068480;28;45261;-81
2023/04/01 01:17:31;;;;;;;0.82;0.30;;;17.70;77.10;;;;;;5068361;28;45217;-81
2023/04/01 01:20:30;;;;;;;0.30;0.20;;;17.70;76.90;;;;;;5068553;28;45667;-81
2023/04/01 01:23:26;;;;;;;1.17;0.25;;;17.70;76.60;;;;;;5067770;28;45187;-81
2023/04/01 01:26:08;;;;;;;0.20;0.10;;;17.70;76.70;;;;;;5068844;28;45363;-81
2023/04/01 01:28:49;;;;;;;0.47;0.15;;;17.80;76.50;;;;;;5068355;28;45121;-81
2023/04/01 01:31:24;;;;;;;0.20;0.10;;;17.80;76.80;;;;;;5067935;28;46370;-81
2023/04/01 01:34:15;;;;;;;0.08;0.08;;;17.80;76.70;;;;;;5068005;28;45306;-81
2023/04/01 01:36:49;;;;;;;0.88;0.25;;;17.80;76.70;;;;;;5067566;28;45223;-81
2023/04/01 01:39:20;;;;;;;0.40;0.10;;;17.80;76.50;;;;;;5068581;28;45251;-81
2023/04/01 01:41:51;;;;;;;0.00;0.00;;;17.80;76.40;;;;;;5067614;28;46772;-81
2023/04/01 01:44:21;;;;;;;0.13;0.13;;;17.80;76.40;;;;;;5067435;28;45246;-81
2023/04/01 01:46:49;;;;;;;0.20;0.10;;;17.70;76.50;;;;;;5068101;28;45233;-81
2023/04/01 01:49:21;;;;;;;0.32;0.15;;;17.80;76.50;;;;;;5067746;28;45206;-81
2023/04/01 01:51:53;;;;;;;1.63;0.10;;;17.70;76.60;;;;;;5067258;28;46763;-81
2023/04/01 01:54:21;;;;;;;0.70;0.15;;;17.70;76.70;;;;;;5071154;28;45374;-81
2023/04/01 01:56:54;;;;;;;0.08;0.00;;;17.70;76.50;;;;;;5067484;28;45131;-80
2023/04/01 01:59:26;;;;;;;0.17;0.00;;;17.70;76.50;;;;;;5067937;28;45561;-81
2023/04/01 02:01:56;;;;;;;0.30;0.10;;;17.70;76.70;;;;;;5067066;28;46413;-81
2023/04/01 02:04:24;;;;;;;0.35;0.10;;;17.70;76.70;;;;;;5067570;28;45137;-81
2023/04/01 02:07:02;;;;;;;0.88;0.10;;;17.70;76.80;;;;;;5067648;28;45111;-81
2023/04/01 02:09:30;;;;;;;0.55;0.17;;;17.70;76.30;;;;;;5067829;28;45203;-81
2023/04/01 02:12:02;;;;;;;0.45;0.20;;;17.80;76.40;;;;;;5067345;28;46429;-80
2023/04/01 02:14:34;;;;;;;0.70;0.20;;;17.80;76.50;;;;;;5067686;28;45366;-81
2023/04/01 02:17:08;;;;;;;0.17;0.10;;;17.80;76.40;;;;;;5067229;28;45171;-81
2023/04/01 02:19:39;;;;;;;0.20;0.03;;;17.70;76.30;;;;;;5067242;28;45391;-80
2023/04/01 02:22:16;;;;;;;0.13;0.08;;;17.80;76.30;;;;;;5067426;28;48184;-81
2023/04/01 02:24:45;;;;;;;0.10;0.10;;;17.80;76.40;;;;;;5067105;28;45146;-81
2023/04/01 02:27:14;;;;;;;0.20;0.10;;;17.80;76.30;;;;;;5067631;28;45349;-81
2023/04/01 02:29:42;;;;;;;0.80;0.10;;;17.80;76.40;;;;;;5066966;28;45205;-81
2023/04/01 02:32:10;;;;;;;0.35;0.10;;;17.80;76.30;;;;;;5066677;28;46741;-81
2023/04/01 02:34:40;;;;;;;0.38;0.25;;;17.80;76.30;;;;;;5066732;28;45828;-81
2023/04/01 02:37:13;;;;;;;0.20;0.10;;;17.70;76.30;;;;;;5066710;28;45337;-80
2023/04/01 02:39:42;;;;;;;0.43;0.03;;;17.80;76.40;;;;;;5066956;28;45394;-81
2023/04/01 02:42:10;;;;;;;0.03;0.00;;;17.70;76.30;;;;;;5066576;28;45346;-81
2023/04/01 02:44:39;;;;;;;0.00;0.00;;;17.70;76.30;;;;;;5066205;28;45285;-81
2023/04/01 02:47:07;;;;;;;0.32;0.03;;;17.70;76.30;;;;;;5069575;28;45213;-81
2023/04/01 02:49:36;;;;;;;0.28;0.10;;;17.70;76.30;;;;;;5067325;28;45097;-81
2023/04/01 02:52:06;;;;;;;0.05;0.03;;;17.70;76.30;;;;;;5066616;28;45892;-81
2023/04/01 02:54:38;;;;;;;0.50;0.10;;;17.70;76.30;;;;;;5067116;28;45118;-81
2023/04/01 02:57:08;;;;;;;0.10;0.10;;;17.70;76.30;;;;;;5066617;28;45162;-81
2023/04/01 02:59:37;;;;;;;0.00;0.00;;;17.70;76.30;;;;;;5066635;28;45478;-82
2023/04/01 03:02:07;;;;;;;0.25;0.00;;;17.80;76.30;;;;;;5066820;28;45849;-81
2023/04/01 03:04:36;;;;;;;0.00;0.00;;;17.70;76.30;;;;;;5066515;28;45286;-81
2023/04/01 03:07:05;;;;;;;0.00;0.00;;;17.80;76.30;;;;;;5066375;28;45250;-81
2023/04/01 03:09:40;;;;;;;0.00;0.00;;;17.80;76.40;;;;;;5067162;28;45412;-81
2023/04/01 03:12:08;;;;;;;0.00;0.00;;;17.80;76.30;;;;;;5066134;28;45433;-81
2023/04/01 03:14:37;;;;;;;0.20;0.10;;;17.80;76.30;;;;;;5066429;28;45201;-81
2023/04/01 03:17:06;;;;;;;0.00;0.00;;;17.80;76.30;;;;;;5066212;28;45381;-80
2023/04/01 03:19:34;;;;;;;0.10;0.00;;;17.70;76.30;;;;;;5066290;28;45075;-81
2023/04/01 03:22:01;;;;;;;0.17;0.00;;;17.80;77.30;;;;;;5066516;28;48098;-81
2023/04/01 03:24:30;;;;;;;0.43;0.10;;;17.70;76.30;;;;;;5066196;28;45271;-81
2023/04/01 03:27:02;;;;;;;0.75;0.10;;;17.70;76.30;;;;;;5066105;28;45086;-80
2023/04/01 03:29:29;;;;;;;0.00;0.00;;;17.70;76.30;;;;;;5066020;28;45471;-81
2023/04/01 03:31:59;;;;;;;0.00;0.00;;;17.70;76.30;;;;;;5066050;28;47554;-81
2023/04/01 03:34:29;;;;;;;0.00;0.00;;;17.70;76.30;;;;;;5066208;28;45078;-80
2023/04/01 03:36:57;;;;;;;0.08;0.03;;;17.70;76.30;;;;;;5066028;28;45347;-80
2023/04/01 03:39:27;;;;;;;0.25;0.10;;;17.70;76.20;;;;;;5069132;28;45303;-81
2023/04/01 03:41:57;;;;;;;0.60;0.08;;;17.70;76.30;;;;;;5065745;28;45790;-80
2023/04/01 03:44:29;;;;;;;0.20;0.13;;;17.70;76.30;;;;;;5058264;28;45199;-81
2023/04/01 03:46:59;;;;;;;0.00;0.00;;;17.70;76.30;;;;;;5066048;28;45385;-81
2023/04/01 03:49:29;;;;;;;0.17;0.03;;;17.70;76.30;;;;;;5066151;28;45118;-81
2023/04/01 03:51:58;;;;;;;0.22;0.10;;;17.70;76.30;;;;;;5065626;28;45534;-81
2023/04/01 03:54:27;;;;;;;0.17;0.10;;;17.70;76.40;;;;;;5057756;28;45299;-81
2023/04/01 03:56:57;;;;;;;0.00;0.00;;;17.80;76.40;;;;;;5068794;28;45229;-81
2023/04/01 03:59:29;;;;;;;0.00;0.00;;;17.70;76.30;;;;;;5069426;28;45122;-81
2023/04/01 04:01:58;;;;;;;0.32;0.10;;;17.70;76.30;;;;;;5069076;28;45846;-81
2023/04/01 04:04:28;;;;;;;0.00;0.00;;;17.70;76.30;;;;;;5061732;28;45306;-81
2023/04/01 04:06:56;;;;;;;0.47;0.05;;;17.70;76.30;;;;;;5069317;28;45252;-81
2023/04/01 04:09:23;;;;;;;0.10;0.05;;;17.70;76.30;;;;;;5069966;28;45542;-81
2023/04/01 04:11:51;;;;;;;0.20;0.10;;;17.70;76.30;;;;;;5068907;28;46571;-81
2023/04/01 04:14:20;;;;;;;0.00;0.00;;;17.70;76.30;;;;;;5069266;28;45182;-81
2023/04/01 04:16:53;;;;;;;0.10;0.00;;;17.70;76.30;;;;;;5069361;28;45228;-81
2023/04/01 04:19:21;;;;;;;0.00;0.00;;;17.70;76.30;;;;;;5069024;28;45216;-81
2023/04/01 04:21:50;;;;;;;0.10;0.10;;;17.70;76.30;;;;;;5069308;28;45736;-81
2023/04/01 04:24:19;;;;;;;0.00;0.00;;;17.70;76.30;;;;;;5069279;28;45224;-81
2023/04/01 04:26:48;;;;;;;1.88;0.10;;;17.70;76.30;;;;;;5068989;28;45197;-81
2023/04/01 04:29:18;;;;;;;0.00;0.00;;;17.70;76.30;;;;;;5069028;28;45108;-81
2023/04/01 04:31:45;;;;;;;0.10;0.10;;;17.70;76.30;;;;;;5071369;28;46411;-81
2023/04/01 04:34:18;;;;;;;0.00;0.00;;;17.70;76.30;;;;;;5069042;28;45218;-81
2023/04/01 04:36:47;;;;;;;0.10;0.00;;;17.70;76.40;;;;;;5068355;28;45377;-81
2023/04/01 04:39:17;;;;;;;0.13;0.10;;;17.70;76.30;;;;;;5069103;28;45464;-81
2023/04/01 04:41:47;;;;;;;0.20;0.17;;;17.80;76.40;;;;;;5068501;28;46929;-81
2023/04/01 04:44:17;;;;;;;0.15;0.00;;;17.70;76.30;;;;;;5068828;28;45257;-81
2023/04/01 04:46:47;;;;;;;1.30;0.20;;;17.80;76.30;;;;;;5068615;28;45213;-81
2023/04/01 04:49:19;;;;;;;0.05;0.00;;;17.70;76.30;;;;;;5069221;28;45694;-81
2023/04/01 04:51:48;;;;;;;0.28;0.00;;;17.70;76.30;;;;;;5068519;28;46784;-81
2023/04/01 04:54:17;;;;;;;0.05;0.00;;;17.70;76.30;;;;;;5068406;28;45233;-81
2023/04/01 04:56:47;;;;;;;0.15;0.10;;;17.70;76.30;;;;;;5068400;28;45333;-82
2023/04/01 04:59:14;;;;;;;0.10;0.10;;;17.70;76.20;;;;;;5068729;28;45118;-81
2023/04/01 05:01:41;;;;;;;0.10;0.03;;;17.70;76.20;;;;;;5068541;28;45652;-81
2023/04/01 05:04:11;;;;;;;0.93;0.10;;;17.80;76.30;;;;;;5068792;28;45216;-81
2023/04/01 05:06:44;;;;;;;0.77;0.10;;;17.70;76.30;;;;;;5067750;28;45210;-81
2023/04/01 05:09:12;;;;;;;0.10;0.00;;;17.70;76.30;;;;;;5068439;28;45272;-81
2023/04/01 05:11:41;;;;;;;0.30;0.10;;;17.70;76.20;;;;;;5067986;28;46531;-81
2023/04/01 05:14:16;;;;;;;0.63;0.20;;;17.70;77.30;;;;;;5068053;28;45133;-81
2023/04/01 05:16:44;;;;;;;0.80;0.10;;;17.70;76.30;;;;;;5068648;28;45182;-81
2023/04/01 05:19:13;;;;;;;0.00;0.00;;;17.70;76.30;;;;;;5068068;28;45471;-81
2023/04/01 05:21:45;;;;;;;0.00;0.00;;;17.70;76.30;;;;;;5068322;28;47187;-80
2023/04/01 05:24:12;;;;;;;0.10;0.00;;;17.70;76.20;;;;;;5071415;28;45397;-81
2023/04/01 05:26:41;;;;;;;0.22;0.10;;;17.80;76.30;;;;;;5067877;28;45367;-81
2023/04/01 05:29:09;;;;;;;0.13;0.10;;;17.80;76.30;;;;;;5068051;28;45201;-81
2023/04/01 05:31:39;;;;;;;0.00;0.00;;;17.80;76.30;;;;;;5067701;28;45573;-81
2023/04/01 05:34:08;;;;;;;0.00;0.00;;;17.70;76.30;;;;;;5067632;28;45229;-81
2023/04/01 05:36:38;;;;;;;0.10;0.10;;;17.70;76.30;;;;;;5067480;28;45367;-81
2023/04/01 05:39:09;;;;;;;0.50;0.10;;;17.80;76.30;;;;;;5067904;28;45230;-81
2023/04/01 05:41:40;;;;;;;0.00;0.00;;;17.80;76.30;;;;;;5068039;28;45549;-81
2023/04/01 05:44:09;;;;;;;0.20;0.10;;;17.80;76.40;;;;;;5067906;28;45122;-81
2023/04/01 05:46:38;;;;;;;0.00;0.00;;;17.70;76.30;;;;;;5067608;28;45230;-81
2023/04/01 05:49:07;;;;;;;0.00;0.00;;;17.70;76.20;;;;;;5067985;28;45118;-81
2023/04/01 05:51:35;;;;;;;0.00;0.00;;;17.70;76.10;;;;;;5067356;28;46161;-81
2023/04/01 05:54:02;;;;;;;0.38;0.10;;;17.70;76.20;;;;;;5067402;28;45173;-81
2023/04/01 05:56:34;;;;;;;0.13;0.10;;;17.70;76.00;;;;;;5067795;28;45162;-81
2023/04/01 05:59:04;;;;;;;0.10;0.10;;;17.70;76.30;;;;;;5068090;28;45473;-81
2023/04/01 06:01:31;;;;;;;0.10;0.10;;;17.70;76.20;;;;;;5067517;28;45563;-81
2023/04/01 06:04:00;;;;;;;0.05;0.05;;;17.70;76.20;;;;;;5067523;28;45106;-81
2023/04/01 06:06:31;;;;;;;0.00;0.00;;;17.70;76.30;;;;;;5067439;28;45280;-81
2023/04/01 06:09:04;;;;;;;0.05;0.05;;;17.70;76.20;;;;;;5067798;28;45498;-81
2023/04/01 06:11:42;;;;;;;0.00;0.00;;;17.80;76.40;;;;;;5067170;28;45641;-81
2023/04/01 06:14:22;;;;;;;0.10;0.10;;;17.70;76.20;;;;;;5067492;28;45225;-81
2023/04/01 06:17:06;;;;;;;0.00;0.00;;;17.80;76.30;;;;;;5070729;28;45266;-80
2023/04/01 06:19:45;;;;;;;0.00;0.00;;;17.80;76.30;;;;;;5066638;28;45169;-81
2023/04/01 06:22:52;;;;;;;0.45;0.20;;;17.80;76.30;;;;;;5067494;28;45728;-80
2023/04/01 06:25:45;;;;;;;0.00;0.00;;;17.80;76.30;;;;;;5016977;28;45420;-81
2023/04/01 06:28:48;;;;;;;0.45;0.00;;;17.80;75.90;;;;;;5067250;28;45095;-81
2023/04/01 06:31:31;;;;;;;0.00;0.00;;;17.70;75.90;;;;;;5054170;28;45287;-81
2023/04/01 06:34:19;;;;;;;0.17;0.10;;;17.70;75.70;;;;;;5067411;28;45696;-81
2023/04/01 06:37:10;;;;;;;0.00;0.00;;;17.70;75.90;;;;;;5066856;28;45126;-81
2023/04/01 06:40:06;;;;;;;0.25;0.10;;;17.70;76.00;;;;;;5066742;28;45233;-80
2023/04/01 06:42:56;;;;;;;0.00;0.00;;;17.70;76.00;;;;;;5066839;28;45440;-81
2023/04/01 06:45:37;;;;;;;0.20;0.10;;;17.70;75.80;;;;;;5066388;28;45735;-81
2023/04/01 06:48:29;;;;;;;0.13;0.05;;;17.70;75.80;;;;;;5066755;28;45083;-82
2023/04/01 06:51:04;;;;;;;0.08;0.08;;;17.70;76.20;;;;;;5066679;28;45323;-82
2023/04/01 06:53:41;;;;;;;0.43;0.20;;;17.60;76.20;;;;;;5067416;28;45213;-82
2023/04/01 06:56:13;;;;;;;0.17;0.10;;;17.60;76.20;;;;;;5066995;28;45780;-81
2023/04/01 06:58:45;;;;;;;0.10;0.08;;;17.60;77.00;;;;;;5066847;28;45342;-82
2023/04/01 07:01:20;;;;;;;1.95;0.10;;;17.60;76.20;;;;;;5066484;28;45146;-81
2023/04/01 07:03:57;;;;;;;0.52;0.20;;;17.70;76.20;;;;;;5066873;28;45495;-81
2023/04/01 07:06:31;;;;;;;0.00;0.00;;;17.70;76.30;;;;;;5066181;28;46452;-81
2023/04/01 07:09:04;;;;;;;0.20;0.10;;;17.70;76.30;;;;;;5069415;28;45130;-82
2023/04/01 07:11:36;;;;;;;0.10;0.10;;;17.70;76.30;;;;;;5066727;28;45131;-82
2023/04/01 07:14:08;;;;;;;0.20;0.10;;;17.70;76.30;;;;;;5066337;28;45432;-81
2023/04/01 07:16:43;;;;;;;0.10;0.10;;;17.70;76.30;;;;;;5066097;28;45477;-82
2023/04/01 07:19:21;;;;;;;0.10;0.10;;;17.60;76.20;;;;;;5066319;28;45372;-81
2023/04/01 07:21:52;;;;;;;0.10;0.10;;;17.60;76.20;;;;;;5066761;28;45237;-82
2023/04/01 07:24:28;;;;;;;0.25;0.13;;;17.60;76.20;;;;;;5066541;28;45487;-81
2023/04/01 07:27:01;;;;;;;0.28;0.10;;;17.60;76.20;;;;;;5066394;28;45882;-81
2023/04/01 07:29:31;;;;;;;0.10;0.10;;;17.60;76.20;;;;;;5066247;28;45356;-81
2023/04/01 07:32:24;;;;;;;1.17;0.20;;;17.60;76.20;;;;;;5066054;28;45244;-81
2023/04/01 07:35:04;;;;;;;0.43;0.22;;;17.60;76.20;;;;;;5035410;28;45468;-82
2023/04/01 07:37:40;;;;;;;0.10;0.10;;;17.70;76.30;;;;;;5025132;28;45759;-82
2023/04/01 07:40:22;;;;;;;0.00;0.00;;;17.70;75.60;;;;;;5026070;28;45211;-82
2023/04/01 07:43:07;;;;;;;0.00;0.00;;;17.70;75.20;;;;;;5026215;28;45313;-82
2023/04/01 07:45:42;;;;;;;0.10;0.10;;;17.80;75.00;;;;;;5025681;28;45148;-82
2023/04/01 07:48:22;;;;;;;0.10;0.05;;;17.80;74.90;;;;;;5025624;28;46283;-82
2023/04/01 07:51:02;;;;;;;0.08;0.00;;;17.80;74.80;;;;;;5025759;28;45116;-82
2023/04/01 07:53:38;;;;;;;0.50;0.05;;;17.80;74.70;;;;;;5026492;28;45344;-82
2023/04/01 07:56:12;;;;;;;0.00;0.00;;;17.80;74.70;;;;;;5025704;28;45422;-82
2023/04/01 07:58:51;;;;;;;0.30;0.10;;;17.80;74.80;;;;;;5025985;28;45632;-82
2023/04/01 08:01:31;;;;;;;1.45;0.05;;;17.80;74.80;;;;;;5028423;28;45148;-83
2023/04/01 08:04:27;;;;;;;0.88;0.20;;;17.80;76.40;;;;;;5025735;28;45187;-82
2023/04/01 08:07:09;;;;;;;0.30;0.10;;;17.80;75.60;;;;;;5025783;28;45177;-83
2023/04/01 08:09:47;;;;;;;4.65;0.10;;;17.80;75.60;;;;;;5025429;28;46968;-83
2023/04/01 08:12:27;;;;;;;0.77;0.20;;;17.80;75.80;;;;;;5026187;28;45377;-83
2023/04/01 08:15:04;;;;;;;1.65;0.05;;;17.80;75.90;;;;;;5026202;28;45157;-82
2023/04/01 08:17:44;;;;;;;1.80;0.10;;;17.80;75.60;;;;;;5025793;28;45454;-82
2023/04/01 08:20:25;;;;;;;0.20;0.10;;;17.80;75.40;;;;;;5025071;28;46724;-83
2023/04/01 08:23:03;;;;;;;0.88;0.10;;;17.70;75.40;;;;;;5025287;28;45240;-83
2023/04/01 08:25:34;;;;;;;0.52;0.10;;;17.70;75.40;;;;;;5025650;28;45362;-82
2023/04/01 08:28:11;;;;;;;0.10;0.10;;;17.70;75.30;;;;;;5025580;28;45147;-83
2023/04/01 08:30:46;;;;;;;0.10;0.10;;;17.70;75.40;;;;;;5025254;28;47504;-83
2023/04/01 08:33:21;;;;;;;0.25;0.10;;;17.70;75.40;;;;;;5024959;28;45376;-82
2023/04/01 08:35:55;;;;;;;0.15;0.10;;;17.80;75.30;;;;;;5025592;28;45289;-82
2023/04/01 08:38:31;;;;;;;0.25;0.20;;;17.70;75.00;;;;;;5025328;28;45518;-82
2023/04/01 08:41:18;;;;;;;0.28;0.10;;;17.70;75.00;;;;;;5024874;28;46556;-82
2023/04/01 08:44:08;;;;;;;0.30;0.13;;;17.80;75.00;;;;;;5028280;28;45295;-83
2023/04/01 08:47:02;;;;;;;0.28;0.20;;;17.80;75.00;;;;;;5006190;28;45243;-83
2023/04/01 08:49:51;;;;;;;1.80;0.38;;;17.80;75.00;;;;;;5026875;28;45144;-82
2023/04/01 08:52:37;;;;;;;0.10;0.10;;;17.80;75.00;;;;;;5031192;28;45310;-83
2023/04/01 08:55:35;;;;;;;0.80;0.35;;;17.80;74.90;;;;;;5028431;28;45252;-82
2023/04/01 08:58:57;;;;;;;0.20;0.20;;;17.80;74.90;;;;;;5028637;28;45285;-82
2023/04/01 09:01:45;;;;;;;0.13;0.13;;;17.80;74.80;;;;;;4967968;28;45410;-82
2023/04/01 09:04:33;;;;;;;0.10;0.10;;;17.80;74.70;;;;;;5027971;28;45509;-82
2023/04/01 09:07:16;;;;;;;0.25;0.10;;;17.80;74.70;;;;;;5037073;28;45422;-82
2023/04/01 09:10:02;;;;;;;0.13;0.10;;;17.80;74.80;;;;;;5048919;28;45202;-81
2023/04/01 09:12:52;;;;;;;0.00;0.00;;;17.80;74.80;;;;;;5048558;28;45550;-82
2023/04/01 09:15:53;;;;;;;0.17;0.17;;;17.80;74.60;;;;;;5048370;28;45674;-82
2023/04/01 09:18:51;;;;;;;0.20;0.10;;;17.80;74.50;;;;;;5032595;28;45241;-82
2023/04/01 09:21:39;;;;;;;0.17;0.08;;;17.80;74.30;;;;;;5048131;28;45276;-81
2023/04/01 09:24:42;;;;;;;0.05;0.05;;;17.90;74.30;;;;;;5048061;28;45082;-82
2023/04/01 09:27:28;;;;;;;0.30;0.08;;;17.90;74.30;;;;;;5047797;28;46455;-82
2023/04/01 09:30:35;;;;;;;0.30;0.10;;;17.90;74.30;;;;;;5047629;28;45288;-82
2023/04/01 09:33:47;;;;;;;0.40;0.10;;;17.90;74.30;;;;;;5030221;28;45249;-82
2023/04/01 09:36:33;;;;;;;0.10;0.10;;;17.90;74.30;;;;;;5047822;28;45347;-82
2023/04/01 09:39:19;;;;;;;0.10;0.00;;;17.80;74.20;;;;;;5048088;28;45924;-82
2023/04/01 09:42:05;;;;;;;0.22;0.13;;;17.90;74.30;;;;;;5047500;28;45155;-82
2023/04/01 09:44:37;;;;;;;0.43;0.17;;;17.90;74.30;;;;;;5050634;28;45233;-82
2023/04/01 09:47:23;;;;;;;0.22;0.10;;;17.90;74.30;;;;;;5047681;28;45293;-82
2023/04/01 09:50:22;;;;;;;0.20;0.20;;;17.90;74.30;;;;;;5047798;28;46440;-82
2023/04/01 09:53:03;;;;;;;0.20;0.20;;;17.80;74.20;;;;;;5046483;28;45220;-81
2023/04/01 09:56:15;;;;;;;0.73;0.10;;;17.90;74.20;;;;;;5047507;28;45192;-81
2023/04/01 09:59:19;;;;;;;0.10;0.10;;;17.90;74.20;;;;;;5047816;28;45205;-82
2023/04/01 10:02:07;;;;;;;0.32;0.20;;;17.90;74.10;;;;;;5024597;28;45667;-81
2023/04/01 10:05:05;;;;;;;0.43;0.22;;;17.90;75.10;;;;;;5047129;28;45329;-81
2023/04/01 10:08:05;;;;;;;0.10;0.10;;;17.90;74.10;;;;;;5047411;28;45425;-82
2023/04/01 10:11:04;;;;;;;0.10;0.10;;;17.90;74.10;;;;;;5047546;28;45313;-81
2023/04/01 10:13:56;;;;;;;0.10;0.08;;;17.90;74.00;;;;;;5045426;28;46860;-81
2023/04/01 10:16:52;;;;;;;0.00;0.00;;;17.90;74.00;;;;;;5041387;28;45273;-81
2023/04/01 10:19:51;;;;;;;0.10;0.10;;;17.90;74.10;;;;;;5047548;28;45237;-82
2023/04/01 10:23:00;;;;;;;0.13;0.10;;;17.90;74.10;;;;;;5047152;28;45142;-81
2023/04/01 10:26:10;;;;;;;0.10;0.10;;;17.90;74.10;;;;;;5047263;28;45592;-82
2023/04/01 10:29:18;;;;;;;1.35;0.20;;;17.90;74.10;;;;;;5046667;28;45118;-81
